METAR Data
IDs: Format: Raw Decoded Include TAF

Data at: 0152 UTC 12 May 2021

KCFJ 120135Z AUTO 35008KT 10SM CLR 07/M01 A3036 RMK AO2 T00741010
KCFJ 120115Z AUTO 35008KT 10SM CLR 08/M01 A3035 RMK AO2 T00761010
KCFJ 120055Z AUTO 10SM CLR 08/M01 A3033 RMK AO2 T00831013
KCFJ 120035Z AUTO 10SM CLR 09/M02 A3033 RMK AO2 T00901016
KCFJ 120015Z AUTO 10SM CLR 09/M01 A3032 RMK AO2 T00941012
KCFJ 112355Z AUTO 10SM CLR 10/M01 A3031 RMK AO2 T01011006 10127 20101
KCFJ 112335Z AUTO 10SM CLR 11/M01 A3031 RMK AO2 T01051010
KCFJ 112315Z AUTO 10SM CLR 11/M01 A3030 RMK AO2 T01091007
KCFJ 112255Z AUTO 10SM CLR 11/00 A3029 RMK AO2 T01121004
KCFJ 112235Z AUTO 10SM CLR 12/M01 A3028 RMK AO2 T01151011
KCFJ 112215Z AUTO 04010KT 10SM CLR 12/00 A3028 RMK AO2 T01221001
KCFJ 112155Z AUTO 10SM SCT050 12/00 A3028 RMK AO2 T01181005
KCFJ 112135Z AUTO 10SM SCT050 12/00 A3028 RMK AO2 T01171003
KCFJ 112115Z AUTO 03010KT 10SM SCT050 13/00 A3028 RMK AO2 T01270002
KCFJ 112055Z AUTO 10SM SCT050 12/00 A3028 RMK AO2 T01210001
KCFJ 112035Z AUTO 10SM SCT050 13/01 A3028 RMK AO2 T01260005
KCFJ 112015Z AUTO 02013G17KT 350V060 10SM SCT050 12/01 A3028 RMK AO2 T01210009
KCFJ 111955Z AUTO 01010KT 10SM SCT055 12/01 A3028 RMK AO2 T01240013
KCFJ 111935Z AUTO 10SM SCT055 12/01 A3029 RMK AO2 T01220005
KCFJ 111915Z AUTO 36008KT 10SM SCT055 12/01 A3030 RMK AO2 T01240011
KCFJ 111855Z AUTO 02012KT 10SM SCT055 12/00 A3029 RMK AO2 T01181004
KCFJ 111835Z AUTO 10SM SCT055 12/01 A3030 RMK AO2 T01220007
KCFJ 111815Z AUTO 03010G19KT 10SM SCT055 12/01 A3031 RMK AO2 T01170010
KCFJ 111755Z AUTO 01007G15KT 340V040 10SM SCT055 12/01 A3031 RMK AO2 T01180005 10118 20051
KCFJ 111735Z AUTO 36009G17KT 10SM SCT055 12/00 A3031 RMK AO2 T01150001
KCFJ 111715Z AUTO 35010KT 330V030 10SM SCT055 11/01 A3032 RMK AO2 T01140008
KCFJ 111655Z AUTO 01007KT 10SM SCT055 11/00 A3033 RMK AO2 T01101002
KCFJ 111635Z AUTO 03013G16KT 10SM CLR 11/01 A3033 RMK AO2 T01120007
KCFJ 111615Z AUTO 36010G15KT 10SM CLR 11/00 A3033 RMK AO2 T01061002
KCFJ 111555Z AUTO 02012G18KT 10SM CLR 10/00 A3032 RMK AO2 T01040004
KCFJ 111535Z AUTO 10SM CLR 10/01 A3032 RMK AO2 T01000006
KCFJ 111515Z AUTO 03009KT 10SM CLR 09/01 A3032 RMK AO2 T00920007
KCFJ 111455Z AUTO 04011KT 10SM CLR 09/01 A3032 RMK AO2 T00920011
KCFJ 111435Z AUTO 05012KT 10SM CLR 09/01 A3032 RMK AO2 T00890010
KCFJ 111415Z AUTO 05010KT 10SM CLR 08/01 A3032 RMK AO2 T00840006
KCFJ 111355Z AUTO 05011KT 10SM CLR 08/01 A3031 RMK AO2 T00830014
KCFJ 111335Z AUTO 04009KT 10SM CLR 08/01 A3030 RMK AO2 T00750014
KCFJ 111315Z AUTO 03009KT 10SM CLR 07/02 A3029 RMK AO2 T00700016
KCFJ 111255Z AUTO 03008KT 10SM SCT100 06/01 A3029 RMK AO2 T00640010
KCFJ 111235Z AUTO 02007KT 10SM SCT100 06/02 A3028 RMK AO2 T00610015
KCFJ 111215Z AUTO 00000KT 10SM OVC100 06/01 A3028 RMK AO2 T00550014
KCFJ 111155Z AUTO 00000KT 10SM OVC090 05/01 A3028 RMK AO2 70001 T00510014 10065 20050
KCFJ 111135Z AUTO 00000KT 10SM OVC080 05/01 A3028 RMK AO2 T00510014
KCFJ 111115Z AUTO 00000KT 10SM OVC070 05/02 A3026 RMK AO2 T00510024
KCFJ 111055Z AUTO 00000KT 10SM OVC070 05/02 A3025 RMK AO2 T00520020
KCFJ 111035Z AUTO 00000KT 10SM OVC060 05/02 A3024 RMK AO2 T00530023
KCFJ 111015Z AUTO 00000KT 10SM BKN050 OVC060 05/03 A3025 RMK AO2 T00540034
KCFJ 110955Z AUTO 00000KT 10SM OVC050 05/03 A3023 RMK AO2 T00530033
KCFJ 110935Z AUTO 00000KT 10SM OVC050 05/03 A3022 RMK AO2 T00530031
KCFJ 110915Z AUTO 00000KT 10SM OVC050 05/03 A3022 RMK AO2 T00530031
KCFJ 110855Z AUTO 03006KT 10SM -SN OVC048 05/03 A3021 RMK AO2 T00530026
KCFJ 110835Z AUTO 00000KT 10SM OVC048 06/04 A3021 RMK AO2 T00570037
KCFJ 110815Z AUTO 00000KT 10SM OVC046 06/04 A3021 RMK AO2 T00570043
KCFJ 110755Z AUTO 00000KT 10SM -RA OVC046 06/04 A3021 RMK AO2 T00600043
KCFJ 110735Z AUTO 00000KT 10SM BKN048 OVC060 06/04 A3019 RMK AO2 T00600044
KCFJ 110715Z AUTO 00000KT 10SM OVC050 06/04 A3019 RMK AO2 T00600041
KCFJ 110655Z AUTO 00000KT 10SM BKN050 BKN060 OVC080 06/04 A3018 RMK AO2 T00600041
KCFJ 110635Z AUTO 04008KT 10SM SCT039 BKN049 OVC065 06/04 A3019 RMK AO2 T00600041
KCFJ 110615Z AUTO 02008KT 10SM BKN034 BKN040 OVC050 06/04 A3020 RMK AO2 T00610042
KCFJ 110555Z AUTO 35005KT 10SM -SN BKN036 OVC045 07/04 A3021 RMK AO2 60001 T00650043 10103 20065
KCFJ 110535Z AUTO 36003KT 10SM -DZ BKN046 OVC055 07/05 A3020 RMK AO2 T00700045
KCFJ 110515Z AUTO 00000KT 10SM BKN050 BKN065 OVC090 07/05 A3019 RMK AO2 T00720045
KCFJ 110455Z AUTO 10SM SCT010 BKN055 OVC100 08/05 A3018 RMK AO2 T00750047 401550000
KCFJ 110435Z AUTO 03004KT 10SM BKN010 BKN065 OVC085 08/07 A3018 RMK AO2 T00810066
KCFJ 110415Z AUTO 01003KT 10SM BKN065 OVC085 08/07 A3017 RMK AO2 T00830065
KCFJ 110355Z AUTO 00000KT 10SM BKN065 OVC075 09/07 A3018 RMK AO2 T00860066
KCFJ 110335Z AUTO 10SM -RA SCT050 BKN065 OVC075 09/07 A3018 RMK AO2 T00870066
KCFJ 110315Z AUTO 10SM -DZ SCT050 OVC065 09/07 A3018 RMK AO2 T00880067
KCFJ 110255Z AUTO 00000KT 10SM -RA BKN050 OVC065 09/06 A3017 RMK AO2 P0001 60001 T00900063
KCFJ 110235Z AUTO 00000KT 10SM -RA BKN050 BKN055 OVC065 09/06 A3018 RMK AO2 T00920064
KCFJ 110215Z AUTO 00000KT 10SM -RA BKN050 OVC065 09/06 A3016 RMK AO2 T00940063
KCFJ 110155Z AUTO 02006KT 10SM BKN050 OVC070 10/06 A3015 RMK AO2 T00960060
KCFJ 110135Z AUTO 36003KT 10SM OVC050 10/06 A3014 RMK AO2 T00970062
KCFJ 110115Z AUTO 00000KT 10SM OVC050 10/06 A3013 RMK AO2 T00980063
KCFJ 110055Z AUTO 00000KT 10SM OVC050 10/06 A3013 RMK AO2 T00970064
KCFJ 110035Z AUTO 00000KT 10SM BKN060 OVC070 10/06 A3012 RMK AO2 T00950064
KCFJ 110015Z AUTO 00000KT 10SM DZ SCT050 OVC070 10/06 A3012 RMK AO2 T00960062
KCFJ 102355Z AUTO 35009KT 10SM RA BKN050 OVC070 10/06 A3013 RMK AO2 T01040055 10155 20104
KCFJ 102335Z AUTO 00000KT 10SM -RA BKN055 OVC075 13/05 A3012 RMK AO2 T01270049
KCFJ 102315Z AUTO 00000KT 10SM SCT055 OVC075 13/04 A3011 RMK AO2 T01320042
KCFJ 102255Z AUTO 00000KT 10SM OVC055 14/04 A3011 RMK AO2 T01350038
KCFJ 102235Z AUTO 00000KT 10SM BKN060 OVC090 14/03 A3011 RMK AO2 T01380026
KCFJ 102215Z AUTO 00000KT 10SM SCT060 OVC090 14/03 A3011 RMK AO2 T01400028
KCFJ 102155Z AUTO 00000KT 10SM SCT060 OVC100 14/03 A3011 RMK AO2 T01430025
KCFJ 102135Z AUTO 00000KT 10SM SCT060 SCT075 BKN100 15/02 A3011 RMK AO2 T01450015
KCFJ 102115Z AUTO 00000KT 10SM SCT060 BKN075 BKN110 15/01 A3011 RMK AO2 T01450010
KCFJ 102055Z AUTO 00000KT 10SM SCT060 15/02 A3012 RMK AO2 T01450020
KCFJ 102035Z AUTO 10SM BKN060 15/03 A3012 RMK AO2 T01520027
KCFJ 102015Z AUTO 32006KT 10SM CLR 15/03 A3012 RMK AO2 T01530030
KCFJ 101955Z AUTO 00000KT 10SM CLR 15/01 A3013 RMK AO2 T01450010
KCFJ 101935Z AUTO 27007KT 10SM SCT055 15/02 A3013 RMK AO2 T01500023
KCFJ 101915Z AUTO 00000KT 10SM SCT055 14/01 A3014 RMK AO2 T01410008
KCFJ 101855Z AUTO 10SM CLR 14/02 A3014 RMK AO2 T01430023
KCFJ 101835Z AUTO 10SM CLR 14/03 A3014 RMK AO2 T01410025
KCFJ 101815Z AUTO 00000KT 10SM CLR 14/03 A3015 RMK AO2 T01380028
KCFJ 101755Z AUTO 29003KT 10SM CLR 14/03 A3015 RMK AO2 T01360026 10136 20026
KCFJ 101735Z AUTO 00000KT 10SM CLR 13/02 A3015 RMK AO2 T01310024
KCFJ 101715Z AUTO 10SM CLR 13/03 A3015 RMK AO2 T01270026
KCFJ 101655Z AUTO 00000KT 10SM CLR 13/03 A3015 RMK AO2 T01250033
KCFJ 101635Z AUTO 00000KT 10SM CLR 12/04 A3016 RMK AO2 T01210040
KCFJ 101615Z AUTO 00000KT 10SM CLR 12/03 A3016 RMK AO2 T01150034
KCFJ 101555Z AUTO 00000KT 10SM CLR 11/03 A3016 RMK AO2 T01120032
KCFJ 101535Z AUTO 00000KT 10SM CLR 11/03 A3016 RMK AO2 T01110031
KCFJ 101515Z AUTO 00000KT 10SM CLR 11/03 A3015 RMK AO2 T01060029
KCFJ 101455Z AUTO 00000KT 10SM CLR 10/03 A3014 RMK AO2 T01010033
KCFJ 101435Z AUTO 00000KT 10SM CLR 09/03 A3015 RMK AO2 T00910032
KCFJ 101415Z AUTO 00000KT 10SM CLR 08/03 A3014 RMK AO2 T00840033
KCFJ 101355Z AUTO 10SM CLR 08/04 A3014 RMK AO2 T00790037